logo dgac
Viernes 20 de Octubre del 2017
Buscar por aerodromo o helipuerto
Ingrese nombre de aeródromo, localidad o designador OACI:
METAR del 20-10-2017 a las 00:00 UTC
METAR SCRM 200000Z 11016KT 9999 OVC030 M08/M11 Q0998
Viento: dirección 110 grados, velocidad 16 nudos
Visibilidad: 10 km o más
Nubes: Cubierto a 3000 pies sobre el nivel del aeródromo
Temperatura: -8 °C
Rocío: -11 °C
Humedad_relativa: 79%
Presión: 998 hPa
METAR del 19-10-2017 a las 23:00 UTC
METAR SCRM 192300Z 10017KT 9999 BKN030 M08/M11 Q0998
Viento: dirección 100 grados, velocidad 17 nudos
Visibilidad: 10 km o más
Nubes: Nublado a 3000 pies sobre el nivel del aeródromo
Temperatura: -8 °C
Rocío: -11 °C
Humedad_relativa: 79%
Presión: 998 hPa
METAR del 19-10-2017 a las 22:00 UTC
METAR SCRM 192200Z 11017KT 9999 BKN020 M08/M11 Q0998
Viento: dirección 110 grados, velocidad 17 nudos
Visibilidad: 10 km o más
Nubes: Nublado a 2000 pies sobre el nivel del aeródromo
Temperatura: -8 °C
Rocío: -11 °C
Humedad_relativa: 79%
Presión: 998 hPa
METAR del 19-10-2017 a las 21:00 UTC
METAR SCRM 192100Z 11019KT 9999 BKN005 OVC080 M08/M11 Q0998
Viento: dirección 110 grados, velocidad 19 nudos
Visibilidad: 10 km o más
Nubes: Nublado a 500 pies sobre el nivel del aeródromo
Nubes: Cubierto a 8000 pies sobre el nivel del aeródromo
Temperatura: -8 °C
Rocío: -11 °C
Humedad_relativa: 79%
Presión: 998 hPa
METAR del 19-10-2017 a las 20:00 UTC
METAR SCRM 192000Z 11018KT 5000 -FZDZ BKN005 OVC080 M08/M11 Q0998
Viento: dirección 110 grados, velocidad 18 nudos
Visibilidad: 5000 metros
Débil Helada LLovizna
Nubes: Nublado a 500 pies sobre el nivel del aeródromo
Nubes: Cubierto a 8000 pies sobre el nivel del aeródromo
Temperatura: -8 °C
Rocío: -11 °C
Humedad_relativa: 79%
Presión: 998 hPa
METAR del 19-10-2017 a las 19:00 UTC
METAR SCRM 191900Z 10018KT 6000 -FZDZ BKN008 OVC080 M08/M11 Q0998
Viento: dirección 100 grados, velocidad 18 nudos
Visibilidad: 6000 metros
Débil Helada LLovizna
Nubes: Nublado a 800 pies sobre el nivel del aeródromo
Nubes: Cubierto a 8000 pies sobre el nivel del aeródromo
Temperatura: -8 °C
Rocío: -11 °C
Humedad_relativa: 79%
Presión: 998 hPa
METAR del 19-10-2017 a las 18:00 UTC
METAR SCRM 191800Z 10021KT 9999 SCT050 SCT100 BKN200 M08/M11 Q0997
Viento: dirección 100 grados, velocidad 21 nudos
Visibilidad: 10 km o más
Nubes: Nubosidad parcial a 5000 pies sobre el nivel del aeródromo
Nubes: Nubosidad parcial a 10000 pies sobre el nivel del aeródromo
Nubes: Nublado a 20000 pies sobre el nivel del aeródromo
Temperatura: -8 °C
Rocío: -11 °C
Humedad_relativa: 79%
Presión: 997 hPa
METAR del 19-10-2017 a las 17:00 UTC
METAR SCRM 191700Z 10023KT 9999 FEW020 BKN080 M08/M10 Q0996
Viento: dirección 100 grados, velocidad 23 nudos
Visibilidad: 10 km o más
Nubes: Escasa nubosidad a 2000 pies sobre el nivel del aeródromo
Nubes: Nublado a 8000 pies sobre el nivel del aeródromo
Temperatura: -8 °C
Rocío: -10 °C
Humedad_relativa: 85%
Presión: 996 hPa
METAR del 19-10-2017 a las 16:00 UTC
METAR SCRM 191600Z 11022KT 9999 SCT015 OVC080 M08/M10 Q0996
Viento: dirección 110 grados, velocidad 22 nudos
Visibilidad: 10 km o más
Nubes: Nubosidad parcial a 1500 pies sobre el nivel del aeródromo
Nubes: Cubierto a 8000 pies sobre el nivel del aeródromo
Temperatura: -8 °C
Rocío: -10 °C
Humedad_relativa: 85%
Presión: 996 hPa
METAR del 19-10-2017 a las 16:00 UTC
METAR SCRM 191600Z 11022KT 9999 SCT015 OVC080 M08/M10 Q0996
Viento: dirección 110 grados, velocidad 22 nudos
Visibilidad: 10 km o más
Nubes: Nubosidad parcial a 1500 pies sobre el nivel del aeródromo
Nubes: Cubierto a 8000 pies sobre el nivel del aeródromo
Temperatura: -8 °C
Rocío: -10 °C
Humedad_relativa: 85%
Presión: 996 hPa